world map with NDB marked

NDB - Airport

This information may not be accurate or current and is not valid for navigation or flight planning. No warranty of fitness for any purpose is made or implied.

flag of Mauritania

Donate via PayPal

Additional information is available on the NEW Great Circle Mapper

Location
City:  Nouadhibou, Mauritania
Near (Alt.):Port-Étienne
Name:Nouadhibou International Airport
ICAO / IATA:GQPP / NDB

Details
Type:Airport (Aerodrome, Airfield)
Use:Public/Civil
Latitude:20°55'42"N (20.928333)
Longitude:17°01'52"W (-17.031110)
Elevation:10 ft (3 m)
Runways:1
Longest:7956 × 148 ft (2425 × 45 m)

Time
Timezone:UTC+0 (DST+2)
Local Time:

Weather
METAR:GQPP  162000Z 35015KT 8000 NSC 19/14 Q1015 NOSIG
TAF:GQPP  161700Z 1618/1718 36012KT 7000 NSC TEMPO 1700/1710 BKN005 PROB40 TEMPO 1703/1707 2500 BR

Related Locations
Nearby:
Farthest:KOC: 12358 mi / 19889 km
Koumac, NC

Find:

   beyond  
but within

Other Information
Maps:
Sources:

  


 


Great Circle Mapper   Great Circle Mapper
Great Circle Mapper FAQ   Great Circle Mapper FAQ
  Karl's Home Page
KLS˛   KLS˛ Home
   GC on Facebook
Airlines of the World   Airlines of the World
Donate via PayPal


Copyright © 2004-2018, Karl L. Swartz. All rights reserved.
All trademarks mentioned herein belong to their respective owners.

Please see credits for attribution and copyright information.

Karl Swartz <karl@kls2.com>
  Powered by FreeBSD
Valid HTML 4.01!
Labeled with ICRA
hCard Microformat
Geo Microformat